createdAt,value
2022-10-05T00:00:23.495Z,12.95
2022-10-05T00:02:53.300Z,11.40
2022-10-05T00:05:28.828Z,9.85
2022-10-05T00:08:01.832Z,11.13
2022-10-05T00:10:30.415Z,9.95
2022-10-05T00:12:58.086Z,12.57
2022-10-05T00:15:27.337Z,9.68
2022-10-05T00:17:54.958Z,11.38
2022-10-05T00:20:25.711Z,11.73
2022-10-05T00:22:58.462Z,13.57
2022-10-05T00:25:26.433Z,11.32
2022-10-05T00:27:56.785Z,9.45
2022-10-05T00:30:26.243Z,10.75
2022-10-05T00:32:59.522Z,9.93
2022-10-05T00:35:29.236Z,9.15
2022-10-05T00:37:57.428Z,9.52
2022-10-05T00:40:39.147Z,9.98
2022-10-05T00:43:27.082Z,9.65
2022-10-05T00:46:01.900Z,13.30
2022-10-05T00:48:43.369Z,8.18
2022-10-05T00:54:12.532Z,10.30
2022-10-05T00:56:57.634Z,9.75
2022-10-05T00:59:42.543Z,11.90
2022-10-05T01:02:16.699Z,9.77
2022-10-05T01:04:54.363Z,8.52
2022-10-05T01:07:33.610Z,9.95
2022-10-05T01:10:11.510Z,11.00
2022-10-05T01:12:49.538Z,10.13
2022-10-05T01:15:26.062Z,9.82
2022-10-05T01:18:01.774Z,11.80
2022-10-05T01:20:44.353Z,10.65
2022-10-05T01:23:41.770Z,12.93
2022-10-05T01:26:29.018Z,11.57
2022-10-05T01:29:05.744Z,10.68
2022-10-05T01:31:40.372Z,11.55
2022-10-05T01:34:19.365Z,11.10
2022-10-05T01:36:54.950Z,12.13
2022-10-05T01:39:32.385Z,12.13
2022-10-05T01:42:06.552Z,11.38
2022-10-05T01:44:42.265Z,11.80
2022-10-05T01:47:16.882Z,10.55
2022-10-05T01:49:53.565Z,11.88
2022-10-05T01:52:32.949Z,15.93
2022-10-05T01:55:15.136Z,15.30
2022-10-05T01:57:55.325Z,12.85
2022-10-05T02:00:24.587Z,12.32
2022-10-05T02:02:58.069Z,10.82
2022-10-05T02:05:30.478Z,12.85
2022-10-05T02:08:01.382Z,12.48
2022-10-05T02:10:36.216Z,11.68
2022-10-05T02:13:18.217Z,15.25
2022-10-05T02:15:53.982Z,12.80
2022-10-05T02:18:27.865Z,13.10
2022-10-05T02:20:57.716Z,13.82
2022-10-05T02:23:28.060Z,11.98
2022-10-05T02:25:57.358Z,14.35
2022-10-05T02:28:31.628Z,14.45
2022-10-05T02:31:06.840Z,13.57
2022-10-05T02:33:36.312Z,13.63
2022-10-05T02:36:12.246Z,12.45
2022-10-05T02:38:52.034Z,13.68
2022-10-05T02:41:28.861Z,13.07
2022-10-05T02:44:04.844Z,14.30
2022-10-05T02:46:37.846Z,11.32
2022-10-05T02:49:15.551Z,13.23
2022-10-05T02:51:51.751Z,12.95
2022-10-05T02:54:32.106Z,12.80
2022-10-05T02:57:05.822Z,13.98
2022-10-05T02:59:38.994Z,13.52
2022-10-05T03:02:16.237Z,12.68
2022-10-05T03:04:52.180Z,14.32
2022-10-05T03:07:24.563Z,14.18
2022-10-05T03:10:01.278Z,11.75
2022-10-05T03:12:43.876Z,13.75
2022-10-05T03:15:24.726Z,14.30
2022-10-05T03:18:03.091Z,13.40
2022-10-05T03:20:41.008Z,12.43
2022-10-05T03:23:16.884Z,13.45
2022-10-05T03:26:03.102Z,12.68
2022-10-05T03:28:40.714Z,13.02
2022-10-05T03:31:20.213Z,10.50
2022-10-05T03:33:54.280Z,12.38
2022-10-05T03:36:28.612Z,12.02
2022-10-05T03:39:02.641Z,12.18
2022-10-05T03:41:38.849Z,11.35
2022-10-05T03:44:18.349Z,13.50
2022-10-05T03:46:57.614Z,11.13
2022-10-05T03:49:35.053Z,11.27
2022-10-05T03:52:07.582Z,12.38
2022-10-05T03:54:39.640Z,12.40
2022-10-05T03:57:12.191Z,12.43
2022-10-05T03:59:44.726Z,12.70
2022-10-05T04:02:22.511Z,12.55
2022-10-05T04:04:56.808Z,10.80
2022-10-05T04:07:35.039Z,10.98
2022-10-05T04:10:08.038Z,10.15
2022-10-05T04:12:41.127Z,10.63
2022-10-05T04:15:19.262Z,9.82
2022-10-05T04:17:51.017Z,12.45
2022-10-05T04:20:24.164Z,11.07
2022-10-05T04:22:58.876Z,10.50
2022-10-05T04:25:30.697Z,11.45
2022-10-05T04:28:07.543Z,13.32
2022-10-05T04:30:40.706Z,9.10
2022-10-05T04:33:11.368Z,10.27
2022-10-05T04:35:55.173Z,9.73
2022-10-05T04:38:38.560Z,10.23
2022-10-05T04:41:22.522Z,12.30
2022-10-05T04:44:01.008Z,11.35
2022-10-05T04:46:39.936Z,11.20
2022-10-05T04:49:25.456Z,9.48
2022-10-05T04:52:02.695Z,9.68
2022-10-05T04:54:45.268Z,10.10
2022-10-05T04:57:17.560Z,9.95
2022-10-05T05:00:04.470Z,9.55
2022-10-05T05:02:48.985Z,9.95
2022-10-05T05:05:28.406Z,11.05
2022-10-05T05:08:12.130Z,9.60
2022-10-05T05:10:59.208Z,10.07
2022-10-05T05:13:44.688Z,6.65
2022-10-05T05:16:20.982Z,9.23
2022-10-05T05:19:22.060Z,7.28
2022-10-05T05:21:58.274Z,7.75
2022-10-05T05:24:39.582Z,7.05
2022-10-05T05:27:35.038Z,11.32
2022-10-05T05:30:08.493Z,7.75
2022-10-05T05:32:45.535Z,9.77
2022-10-05T05:35:32.093Z,9.15
2022-10-05T05:38:11.256Z,6.53
2022-10-05T05:40:49.309Z,5.65
2022-10-05T05:43:25.331Z,9.07
2022-10-05T05:46:00.368Z,9.50
2022-10-05T05:48:36.215Z,8.73
2022-10-05T05:51:09.205Z,6.43
2022-10-05T05:53:41.803Z,7.80
2022-10-05T05:56:13.973Z,9.32
2022-10-05T05:58:49.373Z,8.32
2022-10-05T06:01:33.152Z,8.15
2022-10-05T06:04:05.790Z,9.32
2022-10-05T06:06:38.339Z,8.00
2022-10-05T06:09:14.366Z,10.35
2022-10-05T06:11:49.399Z,7.80
2022-10-05T06:14:21.403Z,11.38
2022-10-05T06:16:54.590Z,8.80
2022-10-05T06:19:24.827Z,10.15
2022-10-05T06:21:56.282Z,10.02
2022-10-05T06:24:28.520Z,11.68
2022-10-05T06:27:20.009Z,9.20
2022-10-05T06:30:03.986Z,9.30
2022-10-05T06:32:36.108Z,9.93
2022-10-05T06:35:18.414Z,9.05
2022-10-05T06:38:05.593Z,8.60
2022-10-05T06:40:45.005Z,9.18
2022-10-05T06:43:37.702Z,8.60
2022-10-05T06:46:09.984Z,9.38
2022-10-05T06:48:58.847Z,9.23
2022-10-05T06:51:33.200Z,8.43
2022-10-05T06:54:09.828Z,9.30
2022-10-05T06:56:45.995Z,11.55
2022-10-05T06:59:23.547Z,12.80
2022-10-05T07:02:00.544Z,9.48
2022-10-05T07:04:47.094Z,9.23
2022-10-05T07:07:22.419Z,9.32
2022-10-05T07:10:02.546Z,7.70
2022-10-05T07:12:44.209Z,9.30
2022-10-05T07:15:35.809Z,9.13
2022-10-05T07:18:26.943Z,9.88
2022-10-05T07:21:02.683Z,10.27
2022-10-05T07:23:45.441Z,11.35
2022-10-05T07:26:20.632Z,10.40
2022-10-05T07:28:51.984Z,9.43
2022-10-05T07:31:29.673Z,9.00
2022-10-05T07:34:03.872Z,8.20
2022-10-05T07:36:58.816Z,11.93
2022-10-05T07:39:58.446Z,7.57
2022-10-05T07:42:33.922Z,8.48
2022-10-05T07:45:15.794Z,9.02
2022-10-05T07:47:50.758Z,7.47
2022-10-05T07:50:25.106Z,9.38
2022-10-05T07:52:57.557Z,9.52
2022-10-05T07:55:27.381Z,7.45
2022-10-05T07:58:06.733Z,8.63
2022-10-05T08:00:59.540Z,7.30
2022-10-05T08:03:38.283Z,7.88
2022-10-05T08:06:10.151Z,9.02
2022-10-05T08:08:49.047Z,8.15
2022-10-05T08:11:20.034Z,8.18
2022-10-05T08:13:52.641Z,9.05
2022-10-05T08:16:21.197Z,9.60
2022-10-05T08:18:57.755Z,7.10
2022-10-05T08:21:32.173Z,8.10
2022-10-05T08:24:07.862Z,8.35
2022-10-05T08:26:53.837Z,8.85
2022-10-05T08:29:28.210Z,7.75
2022-10-05T08:32:00.145Z,10.38
2022-10-05T08:34:36.098Z,7.97
2022-10-05T08:37:08.108Z,6.88
2022-10-05T08:39:40.819Z,6.95
2022-10-05T08:42:45.390Z,7.38
2022-10-05T08:45:38.758Z,7.40
2022-10-05T08:48:19.876Z,6.93
2022-10-05T08:51:27.608Z,7.85
2022-10-05T08:54:25.026Z,9.30
2022-10-05T08:57:15.495Z,6.75
2022-10-05T09:00:08.863Z,8.10
2022-10-05T09:03:15.901Z,6.13
2022-10-05T09:06:07.052Z,5.93
2022-10-05T09:08:49.192Z,8.48
2022-10-05T09:11:26.278Z,6.65
2022-10-05T09:14:25.498Z,7.07
2022-10-05T09:17:38.508Z,5.78
2022-10-05T09:20:30.757Z,6.47
2022-10-05T09:23:01.031Z,6.15
2022-10-05T09:25:55.176Z,6.07
2022-10-05T09:28:31.035Z,7.15
2022-10-05T09:31:24.084Z,6.22
2022-10-05T09:34:36.074Z,6.63
2022-10-05T09:37:56.885Z,5.10
2022-10-05T09:40:55.343Z,7.30
2022-10-05T09:43:55.367Z,6.65
2022-10-05T09:47:15.472Z,6.75
2022-10-05T09:50:09.008Z,5.72
2022-10-05T09:52:55.745Z,7.05
2022-10-05T09:55:55.470Z,7.35
2022-10-05T09:59:07.360Z,5.20
2022-10-05T10:01:51.622Z,5.82
2022-10-05T10:04:37.785Z,7.53
2022-10-05T10:07:28.302Z,5.95
2022-10-05T10:10:32.369Z,5.43
2022-10-05T10:13:23.222Z,8.43
2022-10-05T10:16:09.521Z,7.53
2022-10-05T10:18:53.994Z,5.07
2022-10-05T10:21:54.860Z,6.13
2022-10-05T10:24:43.533Z,7.38
2022-10-05T10:27:24.025Z,6.28
2022-10-05T10:30:10.101Z,6.45
2022-10-05T10:33:05.374Z,8.20
2022-10-05T10:35:36.791Z,6.43
2022-10-05T10:38:23.752Z,7.03
2022-10-05T10:41:27.920Z,6.30
2022-10-05T10:44:34.018Z,7.47
2022-10-05T10:47:29.818Z,6.22
2022-10-05T10:50:23.477Z,7.97
2022-10-05T10:53:05.676Z,6.97
2022-10-05T10:55:43.581Z,6.22
2022-10-05T10:58:49.694Z,9.38
2022-10-05T11:01:31.738Z,6.90
2022-10-05T11:04:32.019Z,8.05
2022-10-05T11:07:29.558Z,7.70
2022-10-05T11:10:15.609Z,6.18
2022-10-05T11:13:26.090Z,7.75
2022-10-05T11:16:19.806Z,7.40
2022-10-05T11:19:12.325Z,7.43
2022-10-05T11:21:51.369Z,7.82
2022-10-05T11:24:41.028Z,6.30
2022-10-05T11:27:28.451Z,7.82
2022-10-05T11:30:23.014Z,8.02
2022-10-05T11:33:24.385Z,6.75
2022-10-05T11:36:34.928Z,6.85
2022-10-05T11:39:38.842Z,5.70
2022-10-05T11:42:44.855Z,6.63
2022-10-05T11:45:22.631Z,7.25
2022-10-05T11:48:08.714Z,8.02
2022-10-05T11:50:43.458Z,8.98
2022-10-05T11:53:18.456Z,5.30
2022-10-05T11:55:57.633Z,6.70
2022-10-05T11:58:30.810Z,10.05
2022-10-05T12:01:05.064Z,6.95
2022-10-05T12:03:45.181Z,6.78
2022-10-05T12:06:29.320Z,6.28
2022-10-05T12:09:11.936Z,5.15
2022-10-05T12:11:58.062Z,4.70
2022-10-05T12:14:39.732Z,5.50
2022-10-05T12:17:17.085Z,5.78
2022-10-05T12:19:49.083Z,8.15
2022-10-05T12:22:21.933Z,6.15
2022-10-05T12:25:05.118Z,5.50
2022-10-05T12:27:38.213Z,5.63
2022-10-05T12:30:15.805Z,5.15
2022-10-05T12:32:59.382Z,6.25
2022-10-05T12:35:47.869Z,6.00
2022-10-05T12:38:24.849Z,4.93
2022-10-05T12:41:01.726Z,6.03
2022-10-05T12:43:38.264Z,7.50
2022-10-05T12:46:18.053Z,6.35
2022-10-05T12:49:08.736Z,6.43
2022-10-05T12:51:42.893Z,6.60
2022-10-05T12:54:17.873Z,7.55
2022-10-05T12:56:54.581Z,5.10
2022-10-05T12:59:35.011Z,5.40
2022-10-05T13:02:11.922Z,6.50
2022-10-05T13:04:47.194Z,5.78
2022-10-05T13:07:29.863Z,8.25
2022-10-05T13:10:10.517Z,8.02
2022-10-05T13:12:49.613Z,7.10
2022-10-05T13:15:24.400Z,6.80
2022-10-05T13:18:05.230Z,6.45
2022-10-05T13:20:37.979Z,5.30
2022-10-05T13:23:13.558Z,5.88
2022-10-05T13:25:51.681Z,5.93
2022-10-05T13:28:25.969Z,9.13
2022-10-05T13:31:03.254Z,5.93
2022-10-05T13:34:02.334Z,5.50
2022-10-05T13:36:40.678Z,7.10
2022-10-05T13:39:21.882Z,10.95
2022-10-05T13:41:55.551Z,7.25
2022-10-05T13:44:32.044Z,5.78
2022-10-05T13:47:02.785Z,5.47
2022-10-05T13:49:42.328Z,5.97
2022-10-05T13:52:22.085Z,6.50
2022-10-05T13:54:59.622Z,6.78
2022-10-05T13:57:45.199Z,9.38
2022-10-05T14:00:22.607Z,5.30
2022-10-05T14:02:56.874Z,7.25
2022-10-05T14:05:29.440Z,4.20
2022-10-05T14:07:59.155Z,6.65
2022-10-05T14:10:37.476Z,10.68
2022-10-05T14:13:22.882Z,6.43
2022-10-05T14:16:04.380Z,5.55
2022-10-05T14:18:34.679Z,5.93
2022-10-05T14:21:16.491Z,5.65
2022-10-05T14:23:44.567Z,4.28
2022-10-05T14:26:20.637Z,9.18
2022-10-05T14:29:00.252Z,5.43
2022-10-05T14:31:30.984Z,6.35
2022-10-05T14:34:17.759Z,3.85
2022-10-05T14:36:47.060Z,5.00
2022-10-05T14:39:14.836Z,5.35
2022-10-05T14:41:48.733Z,4.75
2022-10-05T14:44:28.445Z,4.35
2022-10-05T14:46:58.746Z,6.45
2022-10-05T14:49:29.018Z,6.65
2022-10-05T14:51:58.626Z,5.47
2022-10-05T14:54:49.164Z,5.13
2022-10-05T14:57:25.182Z,4.10
2022-10-05T15:00:03.884Z,4.40
2022-10-05T15:03:05.476Z,7.20
2022-10-05T15:05:39.972Z,5.10
2022-10-05T15:08:21.040Z,4.38
2022-10-05T15:10:53.577Z,3.97
2022-10-05T15:13:25.354Z,5.05
2022-10-05T15:15:55.957Z,4.22
2022-10-05T15:18:37.264Z,4.18
2022-10-05T15:21:22.541Z,6.82
2022-10-05T15:23:55.166Z,7.75
2022-10-05T15:26:36.230Z,8.05
2022-10-05T15:29:17.799Z,5.32
2022-10-05T15:31:57.643Z,4.75
2022-10-05T15:34:33.564Z,4.88
2022-10-05T15:37:10.225Z,4.50
2022-10-05T15:39:45.208Z,4.88
2022-10-05T15:42:15.190Z,5.38
2022-10-05T15:44:55.116Z,5.07
2022-10-05T15:47:27.094Z,5.28
2022-10-05T15:50:04.349Z,5.78
2022-10-05T15:52:38.511Z,6.53
2022-10-05T15:55:22.123Z,4.80
2022-10-05T15:57:57.706Z,5.32
2022-10-05T16:00:26.954Z,4.53
2022-10-05T16:03:05.025Z,5.32
2022-10-05T16:06:07.430Z,5.18
2022-10-05T16:08:58.495Z,4.30
2022-10-05T16:12:00.053Z,4.07
2022-10-05T16:14:36.343Z,5.13
2022-10-05T16:17:15.493Z,5.32
2022-10-05T16:19:54.589Z,4.88
2022-10-05T16:22:29.073Z,3.70
2022-10-05T16:27:43.713Z,6.05
2022-10-05T16:30:16.511Z,7.78
2022-10-05T16:32:49.917Z,5.22
2022-10-05T16:35:29.137Z,4.35
2022-10-05T16:38:08.053Z,4.65
2022-10-05T16:40:45.198Z,5.47
2022-10-05T16:43:26.734Z,5.28
2022-10-05T16:46:10.074Z,8.48
2022-10-05T16:48:46.096Z,4.80
2022-10-05T16:51:21.721Z,5.78
2022-10-05T16:54:01.631Z,5.38
2022-10-05T16:56:35.214Z,5.38
2022-10-05T16:59:26.090Z,6.55
2022-10-05T17:02:05.901Z,5.70
2022-10-05T17:04:46.047Z,4.15
2022-10-05T17:07:34.966Z,6.20
2022-10-05T17:10:33.766Z,4.95
2022-10-05T17:13:13.528Z,4.82
2022-10-05T17:16:01.180Z,8.15
2022-10-05T17:18:53.139Z,6.10
2022-10-05T17:21:28.334Z,5.07
2022-10-05T17:24:02.963Z,7.30
2022-10-05T17:26:39.586Z,6.18
2022-10-05T17:29:16.781Z,4.00
2022-10-05T17:32:12.744Z,5.22
2022-10-05T17:35:18.168Z,6.18
2022-10-05T17:38:18.147Z,4.47
2022-10-05T17:41:16.046Z,4.75
2022-10-05T17:44:20.654Z,4.13
2022-10-05T17:46:50.801Z,3.80
2022-10-05T17:49:47.466Z,4.80
2022-10-05T17:52:44.255Z,5.90
2022-10-05T17:55:29.926Z,9.10
2022-10-05T17:58:00.002Z,6.32
2022-10-05T18:00:43.590Z,5.55
2022-10-05T18:03:33.979Z,6.38
2022-10-05T18:06:31.778Z,7.82
2022-10-05T18:09:33.184Z,5.75
2022-10-05T18:14:55.282Z,7.93
2022-10-05T18:17:45.304Z,9.68
2022-10-05T18:20:18.993Z,4.90
2022-10-05T18:22:50.637Z,5.20
2022-10-05T18:25:27.126Z,7.00
2022-10-05T18:28:12.217Z,5.32
2022-10-05T18:30:59.171Z,5.78
2022-10-05T18:33:46.641Z,4.80
2022-10-05T18:36:27.416Z,5.88
2022-10-05T18:39:04.374Z,8.35
2022-10-05T18:41:45.381Z,4.72
2022-10-05T18:44:31.044Z,4.68
2022-10-05T18:47:06.373Z,5.53
2022-10-05T18:49:50.380Z,5.90
2022-10-05T18:52:26.490Z,6.18
2022-10-05T18:55:06.309Z,6.18
2022-10-05T18:57:49.374Z,4.93
2022-10-05T19:00:19.993Z,5.75
2022-10-05T19:02:52.272Z,5.82
2022-10-05T19:05:48.799Z,6.38
2022-10-05T19:08:29.682Z,5.05
2022-10-05T19:11:06.177Z,6.20
2022-10-05T19:13:44.374Z,5.03
2022-10-05T19:16:41.745Z,4.75
2022-10-05T19:19:32.381Z,5.35
2022-10-05T19:22:05.923Z,5.13
2022-10-05T19:24:47.364Z,6.18
2022-10-05T19:27:25.455Z,5.10
2022-10-05T19:30:11.509Z,6.18
2022-10-05T19:32:51.003Z,5.05
2022-10-05T19:35:26.261Z,4.20
2022-10-05T19:38:09.608Z,5.57
2022-10-05T19:40:46.004Z,5.85
2022-10-05T19:43:29.321Z,6.18
2022-10-05T19:46:06.260Z,5.93
2022-10-05T19:48:43.120Z,8.10
2022-10-05T19:51:15.872Z,4.47
2022-10-05T19:53:50.011Z,3.70
2022-10-05T19:56:20.258Z,3.58
2022-10-05T19:58:53.154Z,3.75
2022-10-05T20:01:26.148Z,2.05
2022-10-05T20:03:55.428Z,1.48
2022-10-05T20:06:23.123Z,1.65
2022-10-05T20:08:52.863Z,2.33
2022-10-05T20:11:22.605Z,1.98
2022-10-05T20:14:19.593Z,1.85
2022-10-05T20:17:04.985Z,1.63
2022-10-05T20:19:57.434Z,1.70
2022-10-05T20:22:31.498Z,2.70
2022-10-05T20:25:01.184Z,2.08
2022-10-05T20:27:46.461Z,2.72
2022-10-05T20:30:18.338Z,2.17
2022-10-05T20:32:48.877Z,3.55
2022-10-05T20:35:16.852Z,4.88
2022-10-05T20:37:44.595Z,2.63
2022-10-05T20:40:12.886Z,2.13
2022-10-05T20:42:40.507Z,2.25
2022-10-05T20:45:09.262Z,3.13
2022-10-05T20:47:38.938Z,3.00
2022-10-05T20:50:09.042Z,2.83
2022-10-05T20:52:37.545Z,2.97
2022-10-05T20:55:05.981Z,3.05
2022-10-05T20:57:33.940Z,4.85
2022-10-05T21:00:01.611Z,3.28
2022-10-05T21:02:29.441Z,3.33
2022-10-05T21:04:58.465Z,3.80
2022-10-05T21:07:26.190Z,3.15
2022-10-05T21:09:55.631Z,2.35
2022-10-05T21:12:23.286Z,2.97
2022-10-05T21:14:52.688Z,2.63
2022-10-05T21:17:20.326Z,3.30
2022-10-05T21:19:48.045Z,1.73
2022-10-05T21:22:17.066Z,2.85
2022-10-05T21:24:45.690Z,2.38
2022-10-05T21:27:13.823Z,2.33
2022-10-05T21:29:42.194Z,3.95
2022-10-05T21:32:11.737Z,2.33
2022-10-05T21:34:40.102Z,2.20
2022-10-05T21:37:08.207Z,2.22
2022-10-05T21:39:37.183Z,1.73
2022-10-05T21:42:05.279Z,1.67
2022-10-05T21:44:32.997Z,2.22
2022-10-05T21:47:02.324Z,1.65
2022-10-05T21:49:30.101Z,3.42
2022-10-05T21:51:58.047Z,1.88
2022-10-05T21:56:58.324Z,3.80
2022-10-05T21:59:30.514Z,2.28
2022-10-05T22:01:58.388Z,1.50
2022-10-05T22:06:54.488Z,2.80
2022-10-05T22:09:22.108Z,1.90
2022-10-05T22:11:49.882Z,2.92
2022-10-05T22:14:18.875Z,2.60
2022-10-05T22:16:47.180Z,1.23
2022-10-05T22:19:17.560Z,1.67
2022-10-05T22:21:45.195Z,2.75
2022-10-05T22:24:12.846Z,4.10
2022-10-05T22:26:42.838Z,2.95
2022-10-05T22:29:10.655Z,1.88
2022-10-05T22:31:40.257Z,1.77
2022-10-05T22:34:07.949Z,1.95
2022-10-05T22:36:35.993Z,2.22
2022-10-05T22:39:03.781Z,2.08
2022-10-05T22:41:31.396Z,4.65
2022-10-05T22:43:59.080Z,4.25
2022-10-05T22:46:26.832Z,2.05
2022-10-05T22:48:55.842Z,3.70
2022-10-05T22:51:23.453Z,6.03
2022-10-05T22:53:51.358Z,5.13
2022-10-05T22:58:47.164Z,2.45
2022-10-05T23:01:17.539Z,3.80
2022-10-05T23:03:46.048Z,3.20
2022-10-05T23:06:16.717Z,5.43
2022-10-05T23:08:44.710Z,3.95
2022-10-05T23:16:09.842Z,3.65
2022-10-05T23:18:38.102Z,4.85
2022-10-05T23:21:07.345Z,4.97
2022-10-05T23:23:38.642Z,6.40
2022-10-05T23:26:08.031Z,6.18
2022-10-05T23:28:35.721Z,5.68
2022-10-05T23:31:06.061Z,4.38
2022-10-05T23:33:34.165Z,3.80
2022-10-05T23:36:03.496Z,6.72
2022-10-05T23:38:31.833Z,7.53
2022-10-05T23:41:01.097Z,7.43
2022-10-05T23:43:29.246Z,8.07
2022-10-05T23:45:57.179Z,6.20
2022-10-05T23:50:54.097Z,2.40
2022-10-05T23:53:21.827Z,4.88
2022-10-05T23:55:50.657Z,6.65
2022-10-05T23:58:20.077Z,5.32
